Time;durP1;ratioP1;P1;durP2;ratioP2;P2;SDS_P1;SDS_P2;PMS_P1;PMS_P2;Temp;Humidity;BMP_temperature;BMP_pressure;BME280_temperature;BME280_humidity;BME280_pressure;Samples;Min_cycle;Max_cycle;Signal;HPM_P1;HPM_P2
2023/10/21 00:00:44;;;;;;;4.78;2.33;;;;;;;;;;5084526;28;20471;-62
2023/10/21 00:03:11;;;;;;;6.07;2.90;;;;;;;;;;5082607;28;20415;-61
2023/10/21 00:05:39;;;;;;;4.00;2.15;;;;;;;;;;5083376;28;20755;-61
2023/10/21 00:08:06;;;;;;;3.13;2.13;;;;;;;;;;5078254;28;20491;-61
2023/10/21 00:10:33;;;;;;;4.40;2.28;;;;;;;;;;5081991;28;20415;-62
2023/10/21 00:13:00;;;;;;;5.25;2.00;;;;;;;;;;5082545;28;20812;-63
2023/10/21 00:15:28;;;;;;;4.38;2.03;;;;;;;;;;5083772;28;20419;-61
2023/10/21 00:17:56;;;;;;;4.63;2.05;;;;;;;;;;5086787;28;20454;-61
2023/10/21 00:20:23;;;;;;;4.75;1.83;;;;;;;;;;5081627;28;20883;-61
2023/10/21 00:22:50;;;;;;;5.55;2.22;;;;;;;;;;5084588;28;20416;-62
2023/10/21 00:25:17;;;;;;;3.30;1.60;;;;;;;;;;5082987;28;20414;-61
2023/10/21 00:27:44;;;;;;;4.53;2.10;;;;;;;;;;5088804;28;20427;-61
2023/10/21 00:30:13;;;;;;;5.15;2.05;;;;;;;;;;5090565;28;20413;-61
2023/10/21 00:32:41;;;;;;;3.37;1.73;;;;;;;;;;5080183;28;20414;-61
2023/10/21 00:35:09;;;;;;;3.33;1.70;;;;;;;;;;5087002;28;20414;-61
2023/10/21 00:37:36;;;;;;;6.10;2.00;;;;;;;;;;5082235;28;20419;-61
2023/10/21 00:40:04;;;;;;;6.35;2.08;;;;;;;;;;5081890;28;20415;-62
2023/10/21 00:42:31;;;;;;;6.77;2.20;;;;;;;;;;5085884;28;20437;-62
2023/10/21 00:44:59;;;;;;;2.80;1.95;;;;;;;;;;5084522;28;20461;-61
2023/10/21 00:47:27;;;;;;;3.33;2.05;;;;;;;;;;5088018;28;20421;-62
2023/10/21 00:49:56;;;;;;;2.65;1.80;;;;;;;;;;5079973;28;20442;-62
2023/10/21 00:52:23;;;;;;;2.47;1.70;;;;;;;;;;5083831;28;20497;-61
2023/10/21 00:54:51;;;;;;;2.10;1.70;;;;;;;;;;5081935;28;20408;-62
2023/10/21 00:57:18;;;;;;;3.65;1.80;;;;;;;;;;5080852;28;20444;-61
2023/10/21 00:59:45;;;;;;;4.22;1.70;;;;;;;;;;5083575;28;20405;-62
2023/10/21 01:02:13;;;;;;;2.80;1.90;;;;;;;;;;5081505;28;20468;-62
2023/10/21 01:04:40;;;;;;;2.60;1.63;;;;;;;;;;5083537;28;20496;-62
2023/10/21 01:07:15;;;;;;;4.53;1.80;;;;;;;;;;5072718;28;20434;-61
2023/10/21 01:09:42;;;;;;;2.20;1.45;;;;;;;;;;5079275;28;20835;-62
2023/10/21 01:12:09;;;;;;;3.58;1.50;;;;;;;;;;5083606;28;20410;-60
2023/10/21 01:14:36;;;;;;;3.67;1.83;;;;;;;;;;5079477;28;20810;-62
2023/10/21 01:17:03;;;;;;;1.40;1.20;;;;;;;;;;5082237;28;20459;-61
2023/10/21 01:19:32;;;;;;;2.83;1.40;;;;;;;;;;5080031;28;20469;-61
2023/10/21 01:21:59;;;;;;;2.25;1.50;;;;;;;;;;5083211;28;20477;-61
2023/10/21 01:24:27;;;;;;;2.73;1.40;;;;;;;;;;5081937;28;20462;-61
2023/10/21 01:26:54;;;;;;;4.15;1.83;;;;;;;;;;5080098;28;20970;-62
2023/10/21 01:29:21;;;;;;;4.53;1.30;;;;;;;;;;5082233;28;20459;-61
2023/10/21 01:31:48;;;;;;;2.05;1.33;;;;;;;;;;5082017;28;20470;-61
2023/10/21 01:34:15;;;;;;;1.60;1.40;;;;;;;;;;5080128;28;20808;-60
2023/10/21 01:36:42;;;;;;;2.03;1.60;;;;;;;;;;5075391;28;20407;-59
2023/10/21 01:39:10;;;;;;;2.15;1.40;;;;;;;;;;5079877;28;21573;-60
2023/10/21 01:41:38;;;;;;;2.67;1.55;;;;;;;;;;5081566;28;20942;-61
2023/10/21 01:44:05;;;;;;;5.03;1.55;;;;;;;;;;5087053;28;20411;-61
2023/10/21 01:46:33;;;;;;;2.50;1.60;;;;;;;;;;5081450;28;20413;-60
2023/10/21 01:48:59;;;;;;;1.70;1.40;;;;;;;;;;5079646;28;20823;-60
2023/10/21 01:51:27;;;;;;;1.40;1.30;;;;;;;;;;5081963;28;20455;-60
2023/10/21 01:53:53;;;;;;;1.75;1.30;;;;;;;;;;5081450;28;20410;-61
2023/10/21 01:56:20;;;;;;;1.98;1.40;;;;;;;;;;5079587;28;20404;-61
2023/10/21 01:58:49;;;;;;;2.95;1.40;;;;;;;;;;5079703;28;20892;-61
2023/10/21 02:01:16;;;;;;;2.00;1.42;;;;;;;;;;5080650;28;20418;-59
2023/10/21 02:03:43;;;;;;;3.83;1.67;;;;;;;;;;5082202;28;20498;-60
2023/10/21 02:06:10;;;;;;;3.73;1.40;;;;;;;;;;5079269;28;20538;-60
2023/10/21 02:08:37;;;;;;;3.53;1.58;;;;;;;;;;5083787;28;20788;-61
2023/10/21 02:11:04;;;;;;;2.80;1.60;;;;;;;;;;5082062;28;20429;-60
2023/10/21 02:13:31;;;;;;;3.10;1.60;;;;;;;;;;5079285;28;20444;-60
2023/10/21 02:15:59;;;;;;;2.03;1.50;;;;;;;;;;5080571;28;20420;-61
2023/10/21 02:18:27;;;;;;;2.08;1.60;;;;;;;;;;5081528;28;20472;-60
2023/10/21 02:20:54;;;;;;;3.35;1.80;;;;;;;;;;5081685;28;20935;-61
2023/10/21 02:23:21;;;;;;;4.65;1.65;;;;;;;;;;5080179;28;20450;-61
2023/10/21 02:25:48;;;;;;;2.25;1.60;;;;;;;;;;5079458;28;20472;-60
2023/10/21 02:28:16;;;;;;;1.85;1.70;;;;;;;;;;5081756;28;20437;-61
2023/10/21 02:30:43;;;;;;;4.32;1.70;;;;;;;;;;5079954;28;20419;-61
2023/10/21 02:33:12;;;;;;;2.78;1.77;;;;;;;;;;5079201;28;20415;-60
2023/10/21 02:35:42;;;;;;;3.60;2.00;;;;;;;;;;5082476;28;20865;-61
2023/10/21 02:38:09;;;;;;;3.60;2.00;;;;;;;;;;5077833;28;20448;-59
2023/10/21 02:40:37;;;;;;;2.92;2.00;;;;;;;;;;5078623;28;20950;-61
2023/10/21 02:43:05;;;;;;;2.05;1.58;;;;;;;;;;5081373;28;20543;-61
2023/10/21 02:45:32;;;;;;;3.50;2.00;;;;;;;;;;5080603;28;20519;-61
2023/10/21 02:47:59;;;;;;;2.00;1.80;;;;;;;;;;5078763;28;20449;-61
2023/10/21 02:50:27;;;;;;;2.80;1.90;;;;;;;;;;5089276;28;20467;-61
2023/10/21 02:52:54;;;;;;;2.60;1.83;;;;;;;;;;5084876;28;20842;-61
2023/10/21 02:55:21;;;;;;;2.53;1.90;;;;;;;;;;5082756;28;20403;-61
2023/10/21 02:57:48;;;;;;;3.25;2.25;;;;;;;;;;5085100;28;20908;-61
2023/10/21 03:00:16;;;;;;;4.88;2.70;;;;;;;;;;5084050;28;20460;-61
2023/10/21 03:02:43;;;;;;;3.83;2.65;;;;;;;;;;5082492;28;20415;-61
2023/10/21 03:05:10;;;;;;;3.30;2.30;;;;;;;;;;5088483;28;20413;-61
2023/10/21 03:07:38;;;;;;;5.78;2.40;;;;;;;;;;5078706;28;20914;-60
2023/10/21 03:10:06;;;;;;;3.70;2.47;;;;;;;;;;5085545;28;20454;-60
2023/10/21 03:12:34;;;;;;;4.50;2.83;;;;;;;;;;5082965;28;20900;-61
2023/10/21 03:15:01;;;;;;;3.45;2.22;;;;;;;;;;5086293;28;20479;-60
2023/10/21 03:17:28;;;;;;;3.10;2.30;;;;;;;;;;5082536;28;20405;-60
2023/10/21 03:19:55;;;;;;;4.13;2.15;;;;;;;;;;5081430;28;20418;-60
2023/10/21 03:22:22;;;;;;;2.67;2.20;;;;;;;;;;5084178;28;20423;-61
2023/10/21 03:24:50;;;;;;;3.37;2.17;;;;;;;;;;5086263;28;20443;-61
2023/10/21 03:27:17;;;;;;;2.90;2.10;;;;;;;;;;5082539;28;20821;-61
2023/10/21 03:29:45;;;;;;;2.60;2.20;;;;;;;;;;5083898;28;20474;-61
2023/10/21 03:32:12;;;;;;;3.67;1.92;;;;;;;;;;5085220;28;20803;-61
2023/10/21 03:34:39;;;;;;;4.03;2.35;;;;;;;;;;5086114;28;20467;-60
2023/10/21 03:37:06;;;;;;;4.15;2.40;;;;;;;;;;5080259;28;20406;-61
2023/10/21 03:39:33;;;;;;;4.88;2.30;;;;;;;;;;5081217;28;20930;-60
2023/10/21 03:42:01;;;;;;;3.72;2.40;;;;;;;;;;5085270;28;20417;-60
2023/10/21 03:44:28;;;;;;;3.45;2.35;;;;;;;;;;5083566;28;20812;-61
2023/10/21 03:46:55;;;;;;;2.50;2.30;;;;;;;;;;5085865;28;20467;-61
2023/10/21 03:49:22;;;;;;;4.20;2.67;;;;;;;;;;5082029;28;20477;-60
2023/10/21 03:51:49;;;;;;;5.40;2.30;;;;;;;;;;5081996;28;20415;-60
2023/10/21 03:54:16;;;;;;;5.13;2.90;;;;;;;;;;5085837;28;20463;-61
2023/10/21 03:56:43;;;;;;;6.38;2.85;;;;;;;;;;5084942;28;20907;-61
2023/10/21 03:59:11;;;;;;;4.05;2.70;;;;;;;;;;5082835;28;20461;-61
2023/10/21 04:01:39;;;;;;;4.40;2.80;;;;;;;;;;5077652;28;20411;-60
2023/10/21 04:04:07;;;;;;;4.15;2.70;;;;;;;;;;5081504;28;20889;-61
2023/10/21 04:06:34;;;;;;;3.60;2.70;;;;;;;;;;5081243;28;20407;-61
2023/10/21 04:09:01;;;;;;;4.43;3.10;;;;;;;;;;5077776;28;20789;-61
2023/10/21 04:11:28;;;;;;;3.45;2.90;;;;;;;;;;5085025;28;20931;-61
2023/10/21 04:13:55;;;;;;;5.70;3.30;;;;;;;;;;5081308;28;20416;-61
2023/10/21 04:16:23;;;;;;;4.15;3.08;;;;;;;;;;5083512;28;20938;-61
2023/10/21 04:18:50;;;;;;;5.35;3.22;;;;;;;;;;5081526;28;20456;-61
2023/10/21 04:21:19;;;;;;;4.45;3.00;;;;;;;;;;5083336;28;20417;-61
2023/10/21 04:23:45;;;;;;;4.88;3.15;;;;;;;;;;5083478;28;20417;-59
2023/10/21 04:26:12;;;;;;;4.05;3.30;;;;;;;;;;5089449;28;20411;-61
2023/10/21 04:28:40;;;;;;;3.93;3.10;;;;;;;;;;5086123;28;20921;-61
2023/10/21 04:31:07;;;;;;;5.38;3.47;;;;;;;;;;5081586;28;20466;-62
2023/10/21 04:33:35;;;;;;;4.03;3.30;;;;;;;;;;5085031;28;20453;-62
2023/10/21 04:36:02;;;;;;;3.78;3.40;;;;;;;;;;5083538;28;20406;-62
2023/10/21 04:38:30;;;;;;;5.88;3.58;;;;;;;;;;5081741;28;20410;-58
2023/10/21 04:40:57;;;;;;;5.13;4.15;;;;;;;;;;5084783;28;20414;-61
2023/10/21 04:43:24;;;;;;;6.53;4.30;;;;;;;;;;5081886;28;20465;-61
2023/10/21 04:45:51;;;;;;;7.10;4.20;;;;;;;;;;5081132;28;20459;-61
2023/10/21 04:48:18;;;;;;;6.32;4.40;;;;;;;;;;5080978;28;20904;-59
2023/10/21 04:50:47;;;;;;;6.18;4.70;;;;;;;;;;5083368;28;20405;-61
2023/10/21 04:53:15;;;;;;;5.82;4.57;;;;;;;;;;5084111;28;20412;-61
2023/10/21 04:55:42;;;;;;;5.97;4.63;;;;;;;;;;5082921;28;20462;-61
2023/10/21 04:58:09;;;;;;;6.55;5.22;;;;;;;;;;5088855;28;20410;-59
2023/10/21 05:00:37;;;;;;;6.88;5.50;;;;;;;;;;5080538;28;20437;-61
2023/10/21 05:03:04;;;;;;;7.72;5.88;;;;;;;;;;5083880;28;20839;-61
2023/10/21 05:05:34;;;;;;;7.40;5.65;;;;;;;;;;5081463;28;20476;-59
2023/10/21 05:08:02;;;;;;;7.32;6.18;;;;;;;;;;5084153;28;20459;-59
2023/10/21 05:10:29;;;;;;;6.65;5.88;;;;;;;;;;5079447;28;20450;-61
2023/10/21 05:12:56;;;;;;;8.53;6.63;;;;;;;;;;5081364;28;20920;-61
2023/10/21 05:15:24;;;;;;;8.05;6.00;;;;;;;;;;5084076;28;20466;-60
2023/10/21 05:17:51;;;;;;;8.25;5.93;;;;;;;;;;5079175;28;20866;-60
2023/10/21 05:20:18;;;;;;;9.27;6.13;;;;;;;;;;5079498;28;20466;-60
2023/10/21 05:22:45;;;;;;;7.90;5.55;;;;;;;;;;5083404;28;20835;-59
2023/10/21 05:25:13;;;;;;;9.57;6.07;;;;;;;;;;5080017;28;20410;-61
2023/10/21 05:27:40;;;;;;;8.73;5.63;;;;;;;;;;5080045;28;20444;-59
2023/10/21 05:30:08;;;;;;;9.60;5.25;;;;;;;;;;5083801;28;20470;-61
2023/10/21 05:32:36;;;;;;;10.57;5.30;;;;;;;;;;5082978;28;20417;-61
2023/10/21 05:35:07;;;;;;;8.25;5.07;;;;;;;;;;5084332;28;20416;-61
2023/10/21 05:37:35;;;;;;;8.00;5.03;;;;;;;;;;5083064;28;20456;-61
2023/10/21 05:40:02;;;;;;;7.30;5.22;;;;;;;;;;5071438;28;20411;-61
2023/10/21 05:42:30;;;;;;;8.18;5.03;;;;;;;;;;5080908;28;20503;-61
2023/10/21 05:44:57;;;;;;;9.00;5.53;;;;;;;;;;5079523;28;20465;-61
2023/10/21 05:47:26;;;;;;;9.25;5.45;;;;;;;;;;5082429;28;20880;-61
2023/10/21 05:49:53;;;;;;;8.23;5.88;;;;;;;;;;5077603;28;20454;-61
2023/10/21 05:52:20;;;;;;;9.30;5.88;;;;;;;;;;5079769;28;20515;-61
2023/10/21 05:54:47;;;;;;;10.80;5.78;;;;;;;;;;5079846;28;20417;-61
2023/10/21 05:57:14;;;;;;;9.18;6.10;;;;;;;;;;5080845;28;20904;-61
2023/10/21 05:59:42;;;;;;;9.30;5.67;;;;;;;;;;5082433;28;20410;-61
2023/10/21 06:02:11;;;;;;;10.68;6.40;;;;;;;;;;5082406;28;20450;-61
2023/10/21 06:04:38;;;;;;;11.10;7.13;;;;;;;;;;5085154;28;20458;-61
2023/10/21 06:07:05;;;;;;;11.27;6.85;;;;;;;;;;5075378;28;20413;-61
2023/10/21 06:09:33;;;;;;;9.93;6.43;;;;;;;;;;5078207;28;20429;-61
2023/10/21 06:12:00;;;;;;;10.55;7.28;;;;;;;;;;5083325;28;20978;-61
2023/10/21 06:14:27;;;;;;;9.18;6.32;;;;;;;;;;5086401;28;20530;-61
2023/10/21 06:16:55;;;;;;;9.32;6.60;;;;;;;;;;5083238;28;20874;-61
2023/10/21 06:19:22;;;;;;;9.85;6.15;;;;;;;;;;5084401;28;20455;-61
2023/10/21 06:21:49;;;;;;;10.80;5.72;;;;;;;;;;5078433;28;20409;-61
2023/10/21 06:24:17;;;;;;;9.43;5.90;;;;;;;;;;5079027;28;20403;-62
2023/10/21 06:26:44;;;;;;;9.38;5.72;;;;;;;;;;5084630;28;20479;-63
2023/10/21 06:29:11;;;;;;;7.18;5.57;;;;;;;;;;5079086;28;20797;-60
2023/10/21 06:31:38;;;;;;;8.98;5.70;;;;;;;;;;5075415;28;20464;-61
2023/10/21 06:34:06;;;;;;;8.68;5.20;;;;;;;;;;5079018;28;20414;-61
2023/10/21 06:36:33;;;;;;;8.60;5.40;;;;;;;;;;5082791;28;20530;-61
2023/10/21 06:39:00;;;;;;;7.28;5.13;;;;;;;;;;5085391;28;20939;-60
2023/10/21 06:41:27;;;;;;;8.55;5.32;;;;;;;;;;5080572;28;20409;-62
2023/10/21 06:43:57;;;;;;;8.38;4.90;;;;;;;;;;5082835;28;20414;-60
2023/10/21 06:46:24;;;;;;;6.07;5.30;;;;;;;;;;5083239;28;20412;-61
2023/10/21 06:48:51;;;;;;;6.63;4.97;;;;;;;;;;5083156;28;20482;-60
2023/10/21 06:51:19;;;;;;;7.90;5.13;;;;;;;;;;5079186;28;20456;-61
2023/10/21 06:53:46;;;;;;;5.43;4.10;;;;;;;;;;5079059;28;20772;-61
2023/10/21 06:56:13;;;;;;;7.10;4.47;;;;;;;;;;5079011;28;20403;-59
2023/10/21 06:58:40;;;;;;;7.03;4.20;;;;;;;;;;5082860;28;20519;-61
2023/10/21 07:01:07;;;;;;;4.35;3.90;;;;;;;;;;5081559;28;20413;-61
2023/10/21 07:03:35;;;;;;;6.18;3.78;;;;;;;;;;5080119;28;20490;-61
2023/10/21 07:06:02;;;;;;;5.95;3.53;;;;;;;;;;5082234;28;20416;-61
2023/10/21 07:08:30;;;;;;;5.72;3.22;;;;;;;;;;5077414;28;20504;-62
2023/10/21 07:10:57;;;;;;;5.32;3.20;;;;;;;;;;5073651;28;20431;-61
2023/10/21 07:13:24;;;;;;;4.35;2.97;;;;;;;;;;5076776;28;20884;-61
2023/10/21 07:15:52;;;;;;;2.60;2.38;;;;;;;;;;5081864;28;20413;-62
2023/10/21 07:18:19;;;;;;;3.40;2.40;;;;;;;;;;5076945;28;20454;-64
2023/10/21 07:20:46;;;;;;;3.15;2.30;;;;;;;;;;5075768;28;20415;-63
2023/10/21 07:23:14;;;;;;;2.67;2.00;;;;;;;;;;5073514;28;20505;-62
2023/10/21 07:25:43;;;;;;;3.22;1.70;;;;;;;;;;5073909;28;20460;-63
2023/10/21 07:28:10;;;;;;;5.18;1.88;;;;;;;;;;5073839;28;20801;-64
2023/10/21 07:30:37;;;;;;;2.63;1.38;;;;;;;;;;5074539;28;20946;-61
2023/10/21 07:33:04;;;;;;;1.80;1.40;;;;;;;;;;5072643;28;20474;-61
2023/10/21 07:35:31;;;;;;;2.58;1.30;;;;;;;;;;5082827;28;20862;-61
2023/10/21 07:37:58;;;;;;;3.13;1.50;;;;;;;;;;5077787;28;20407;-61
2023/10/21 07:40:25;;;;;;;2.80;1.33;;;;;;;;;;5080602;28;20793;-60
2023/10/21 07:42:54;;;;;;;2.10;1.30;;;;;;;;;;5082103;28;20774;-62
2023/10/21 07:45:22;;;;;;;3.00;1.30;;;;;;;;;;5080453;28;20435;-60
2023/10/21 07:47:49;;;;;;;1.48;0.80;;;;;;;;;;5079845;28;20471;-61
2023/10/21 07:50:17;;;;;;;3.35;1.00;;;;;;;;;;5083170;28;20426;-60
2023/10/21 07:52:44;;;;;;;1.88;0.80;;;;;;;;;;5080333;28;20419;-60
2023/10/21 07:55:12;;;;;;;1.87;0.90;;;;;;;;;;5082045;28;20929;-61
2023/10/21 07:57:40;;;;;;;1.65;0.80;;;;;;;;;;5081375;28;20408;-60
2023/10/21 08:00:13;;;;;;;3.78;0.90;;;;;;;;;;5079965;28;20886;-60
2023/10/21 08:02:40;;;;;;;1.30;0.85;;;;;;;;;;5084860;28;20406;-60
2023/10/21 08:05:08;;;;;;;2.55;1.13;;;;;;;;;;5083883;28;20806;-60
2023/10/21 08:07:34;;;;;;;2.50;0.95;;;14.00;99.90;;;;;;5075774;28;20894;-62
2023/10/21 08:10:04;;;;;;;1.80;0.90;;;13.70;99.90;;;;;;5083431;28;20422;-63
2023/10/21 08:12:31;;;;;;;2.08;0.90;;;13.70;99.90;;;;;;5090423;28;20459;-62
2023/10/21 08:14:58;;;;;;;1.40;0.95;;;14.00;99.90;;;;;;5094208;28;20467;-62
2023/10/21 08:17:27;;;;;;;2.17;1.00;;;13.50;99.90;;;;;;5082761;28;20402;-62
2023/10/21 08:19:53;;;;;;;2.03;1.10;;;13.50;99.90;;;;;;5080060;28;21021;-60
2023/10/21 08:22:20;;;;;;;2.35;0.82;;;13.60;99.90;;;;;;5082251;28;20412;-61
2023/10/21 08:24:47;;;;;;;1.40;1.00;;;13.60;99.90;;;;;;5082212;28;20906;-60
2023/10/21 08:27:14;;;;;;;2.00;0.90;;;13.60;99.90;;;;;;5080005;28;20407;-60
2023/10/21 08:29:41;;;;;;;2.50;1.00;;;13.80;99.90;;;;;;5082229;28;20525;-60
2023/10/21 08:32:08;;;;;;;1.73;0.67;;;13.60;99.90;;;;;;5081743;28;21053;-60
2023/10/21 08:34:36;;;;;;;1.90;0.82;;;13.80;99.90;;;;;;5083262;28;20783;-60
2023/10/21 08:37:04;;;;;;;2.50;1.00;;;13.90;99.90;;;;;;5076825;28;20889;-60
2023/10/21 08:39:31;;;;;;;1.33;0.80;;;13.90;99.90;;;;;;5078763;28;20928;-60
2023/10/21 08:41:58;;;;;;;1.42;0.80;;;13.90;99.90;;;;;;5082310;28;20431;-60
2023/10/21 08:44:25;;;;;;;1.13;0.63;;;13.90;99.90;;;;;;5080467;28;20469;-60
2023/10/21 08:46:54;;;;;;;1.58;0.77;;;14.70;99.90;;;;;;5080337;28;20920;-60
2023/10/21 08:49:21;;;;;;;1.88;0.90;;;14.10;99.90;;;;;;5082576;28;20549;-64
2023/10/21 08:51:51;;;;;;;2.33;0.80;;;13.90;99.90;;;;;;5082442;28;20410;-61
2023/10/21 08:54:19;;;;;;;0.85;0.70;;;13.60;99.90;;;;;;5081730;28;20459;-60
2023/10/21 08:56:46;;;;;;;1.70;0.60;;;13.70;99.90;;;;;;5079708;28;20422;-61
2023/10/21 08:59:14;;;;;;;3.80;0.90;;;13.60;99.90;;;;;;5081605;28;20406;-61
2023/10/21 09:01:41;;;;;;;1.20;0.80;;;13.70;99.90;;;;;;5078266;28;20460;-60
2023/10/21 09:04:08;;;;;;;1.88;0.73;;;13.60;99.90;;;;;;5088464;28;20424;-59
2023/10/21 09:06:35;;;;;;;2.90;0.90;;;13.70;99.90;;;;;;5086026;28;20410;-56
2023/10/21 09:09:05;;;;;;;2.10;0.60;;;13.80;99.90;;;;;;5077814;28;20430;-58
2023/10/21 09:11:31;;;;;;;1.80;0.70;;;14.00;99.90;;;;;;5078989;28;20494;-61
2023/10/21 09:13:59;;;;;;;1.75;0.75;;;13.90;99.90;;;;;;5080943;28;20780;-58
2023/10/21 09:16:29;;;;;;;1.83;0.80;;;14.30;99.90;;;;;;5081457;28;20405;-58
2023/10/21 09:18:57;;;;;;;0.88;0.70;;;14.70;99.90;;;;;;5079301;28;20457;-60
2023/10/21 09:21:45;;;;;;;2.25;0.77;;;14.10;99.90;;;;;;5079639;28;20941;-58
2023/10/21 09:24:21;;;;;;;2.45;0.50;;;14.20;99.90;;;;;;5076158;28;20493;-58
2023/10/21 09:26:48;;;;;;;1.30;0.70;;;14.60;99.90;;;;;;5081183;28;20442;-59
2023/10/21 09:29:18;;;;;;;1.27;0.80;;;14.20;99.90;;;;;;5084997;28;20806;-62
2023/10/21 09:31:51;;;;;;;1.90;0.70;;;14.00;99.90;;;;;;5079343;28;20411;-64
2023/10/21 09:34:24;;;;;;;1.53;0.70;;;13.80;99.90;;;;;;5079976;28;20536;-63
2023/10/21 09:36:52;;;;;;;2.45;0.70;;;13.90;99.90;;;;;;5084744;28;20470;-63
2023/10/21 09:39:21;;;;;;;1.58;0.57;;;14.70;99.90;;;;;;5083509;28;20854;-63
2023/10/21 09:41:48;;;;;;;1.63;0.80;;;13.50;99.90;;;;;;5081923;28;20931;-66
2023/10/21 09:44:16;;;;;;;4.32;1.90;;;13.40;99.90;;;;;;5085172;28;20504;-61
2023/10/21 09:46:44;;;;;;;2.27;0.60;;;14.30;99.90;;;;;;5084103;28;20499;-58
2023/10/21 09:49:13;;;;;;;1.00;0.52;;;13.60;99.90;;;;;;5084392;28;20533;-62
2023/10/21 09:52:02;;;;;;;0.57;0.50;;;13.90;99.90;;;;;;5084077;28;20937;-62
2023/10/21 09:54:33;;;;;;;1.67;0.70;;;15.00;99.90;;;;;;5080021;28;20442;-63
2023/10/21 09:57:01;;;;;;;1.83;0.70;;;14.30;99.90;;;;;;5084395;28;20411;-62
2023/10/21 09:59:29;;;;;;;1.25;0.70;;;14.30;99.90;;;;;;5081061;28;20406;-61
2023/10/21 10:01:57;;;;;;;2.40;0.50;;;14.40;99.90;;;;;;5077543;28;20848;-62
2023/10/21 10:04:26;;;;;;;1.40;0.40;;;14.50;99.90;;;;;;5086160;28;20413;-60
2023/10/21 10:06:58;;;;;;;1.40;0.52;;;14.60;99.90;;;;;;5075063;28;20412;-61
2023/10/21 10:09:26;;;;;;;1.50;0.70;;;14.80;99.90;;;;;;5075675;28;20423;-62
2023/10/21 10:11:59;;;;;;;1.93;0.50;;;14.80;92.70;;;;;;5084682;28;20458;-61
2023/10/21 10:14:26;;;;;;;1.00;0.60;;;14.90;62.90;;;;;;5079634;28;20994;-60
2023/10/21 10:16:53;;;;;;;0.75;0.55;;;14.80;55.90;;;;;;5077003;28;20431;-60
2023/10/21 10:19:37;;;;;;;1.65;0.60;;;15.10;58.80;;;;;;5079063;28;21299;-59
2023/10/21 10:22:18;;;;;;;0.70;0.50;;;14.70;6.00;;;;;;5083365;28;20431;-60
2023/10/21 10:24:51;;;;;;;1.80;0.60;;;14.90;32.20;;;;;;5078852;28;20439;-61
2023/10/21 10:27:19;;;;;;;2.55;0.70;;;14.90;1.00;;;;;;5080504;28;20406;-61
2023/10/21 10:29:50;;;;;;;1.88;0.70;;;14.80;1.00;;;;;;5081711;28;20418;-61
2023/10/21 10:32:17;;;;;;;1.92;0.60;;;14.80;1.00;;;;;;5079685;28;20845;-60
2023/10/21 10:34:53;;;;;;;2.03;1.05;;;15.00;1.00;;;;;;5082976;28;20420;-58
2023/10/21 10:37:30;;;;;;;2.70;1.30;;;15.20;1.00;;;;;;5079442;28;20968;-59
2023/10/21 10:39:57;;;;;;;1.65;0.70;;;;;;;;;;5078107;28;20403;-61
2023/10/21 10:42:29;;;;;;;2.20;0.70;;;;;;;;;;5081146;28;20406;-61
2023/10/21 10:44:56;;;;;;;1.45;0.65;;;;;;;;;;5081044;28;20440;-61
2023/10/21 10:47:23;;;;;;;1.00;0.50;;;;;;;;;;5078621;28;20774;-59
2023/10/21 10:49:56;;;;;;;2.53;0.82;;;;;;;;;;5080648;28;20422;-62
2023/10/21 10:52:27;;;;;;;1.75;0.68;;;;;;;;;;5081625;28;20434;-64
2023/10/21 10:54:54;;;;;;;1.60;0.70;;;;;;;;;;5079409;28;20414;-60
2023/10/21 10:57:22;;;;;;;2.13;0.80;;;;;;;;;;5079016;28;20411;-59
2023/10/21 10:59:50;;;;;;;2.90;0.60;;;;;;;;;;5081741;28;20409;-59
2023/10/21 11:02:18;;;;;;;1.08;0.50;;;;;;;;;;5079671;28;20412;-57
2023/10/21 11:04:48;;;;;;;2.45;0.80;;;;;;;;;;5082413;28;20406;-59
2023/10/21 11:07:16;;;;;;;1.65;0.60;;;;;;;;;;5078200;28;20402;-58
2023/10/21 11:09:43;;;;;;;3.40;0.70;;;;;;;;;;5081900;28;20477;-61
2023/10/21 11:12:10;;;;;;;2.58;0.82;;;;;;;;;;5082662;28;20419;-59
2023/10/21 11:14:38;;;;;;;1.75;0.68;;;;;;;;;;5082434;28;20404;-60
2023/10/21 11:17:06;;;;;;;2.80;0.80;;;;;;;;;;5083591;28;20897;-59
2023/10/21 11:19:33;;;;;;;1.88;0.65;;;;;;;;;;5085928;28;20406;-61
2023/10/21 11:22:07;;;;;;;2.63;0.57;;;;;;;;;;5082756;28;20410;-62
2023/10/21 11:24:35;;;;;;;2.97;0.70;;;;;;;;;;5082653;28;20494;-62
2023/10/21 11:27:04;;;;;;;1.98;0.80;;;;;;;;;;5084730;28;20493;-59
2023/10/21 11:29:31;;;;;;;1.45;0.70;;;;;;;;;;5083471;28;20778;-58
2023/10/21 11:31:58;;;;;;;1.50;0.70;;;;;;;;;;5082513;28;20800;-60
2023/10/21 11:34:29;;;;;;;1.48;0.63;;;;;;;;;;5086273;28;20460;-56
2023/10/21 11:36:57;;;;;;;2.40;0.68;;;;;;;;;;5080678;28;20496;-60
2023/10/21 11:39:25;;;;;;;3.07;0.73;;;;;;;;;;5082020;28;20413;-57
2023/10/21 11:41:53;;;;;;;3.80;0.70;;;;;;;;;;5083385;28;20408;-61
2023/10/21 11:44:26;;;;;;;4.40;0.70;;;;;;;;;;5082710;28;20910;-59
2023/10/21 11:46:54;;;;;;;1.38;0.60;;;;;;;;;;5084974;28;20459;-62
2023/10/21 11:49:23;;;;;;;1.52;0.63;;;;;;;;;;5083140;28;20412;-59
2023/10/21 11:51:52;;;;;;;1.53;0.50;;;;;;;;;;5081751;28;20428;-59
2023/10/21 11:54:32;;;;;;;2.70;0.70;;;;;;;;;;5083874;28;20880;-60
2023/10/21 12:03:26;;;;;;;2.92;0.80;;;;;;;;;;5083415;28;20409;-62
2023/10/21 12:14:08;;;;;;;4.55;1.00;;;;;;;;;;5080296;28;20689;-61
2023/10/21 12:16:55;;;;;;;3.53;1.00;;;;;;;;;;5069807;28;20411;-61
2023/10/21 12:22:52;;;;;;;3.77;1.10;;;;;;;;;;5027893;28;20490;-61
2023/10/21 12:36:22;;;;;;;3.63;0.88;;;;;;;;;;5016583;28;20396;-61
2023/10/21 12:38:56;;;;;;;4.53;1.00;;;;;;;;;;5036721;28;20765;-61
2023/10/21 12:41:26;;;;;;;3.75;1.08;;;;;;;;;;5027025;28;20891;-61
2023/10/21 12:43:53;;;;;;;2.85;1.10;;;;;;;;;;5027125;28;20422;-59
2023/10/21 12:46:25;;;;;;;3.85;0.90;;;;;;;;;;5035622;28;20510;-60
2023/10/21 12:48:57;;;;;;;4.03;1.10;;;;;;;;;;5036346;28;20524;-62
2023/10/21 12:51:24;;;;;;;2.78;1.00;;;;;;;;;;5035578;28;20412;-63
2023/10/21 12:53:51;;;;;;;3.17;0.93;;;;;;;;;;5037009;28;20421;-61
2023/10/21 12:56:19;;;;;;;2.78;0.98;;;;;;;;;;5037819;28;20414;-58
2023/10/21 12:58:46;;;;;;;5.35;1.20;;;;;;;;;;5035519;28;20404;-58
2023/10/21 13:01:14;;;;;;;3.88;1.20;;;;;;;;;;5037208;28;20411;-59
2023/10/21 13:03:42;;;;;;;5.03;1.40;;;;;;;;;;5037983;28;20411;-59
2023/10/21 13:06:10;;;;;;;3.47;1.20;;;;;;;;;;5037679;28;20415;-58
2023/10/21 13:08:37;;;;;;;4.07;1.20;;;;;;;;;;5036864;28;20419;-58
2023/10/21 13:11:05;;;;;;;4.03;1.02;;;;;;;;;;5037824;28;20819;-62
2023/10/21 13:13:35;;;;;;;6.35;1.48;;;;;;;;;;5056953;28;20485;-61
2023/10/21 13:16:03;;;;;;;4.25;1.10;;;;;;;;;;5056980;28;20422;-60
2023/10/21 13:18:30;;;;;;;4.10;1.15;;;;;;;;;;5054637;28;20758;-63
2023/10/21 13:20:59;;;;;;;5.60;1.38;;;;;;;;;;5056978;28;20413;-58
2023/10/21 13:23:26;;;;;;;4.05;1.30;;;;;;;;;;5052496;28;20499;-59
2023/10/21 13:25:53;;;;;;;4.43;1.20;;;;;;;;;;5041377;28;20410;-60
2023/10/21 13:28:20;;;;;;;5.45;1.10;;;;;;;;;;5041938;28;20796;-62
2023/10/21 13:30:49;;;;;;;6.65;1.63;;;;;;;;;;5034849;28;20963;-61
2023/10/21 13:33:16;;;;;;;5.20;1.20;;;;;;;;;;5045685;28;20433;-57
2023/10/21 13:35:43;;;;;;;4.53;1.30;;;;;;;;;;5037926;28;20430;-61
2023/10/21 13:38:12;;;;;;;4.25;1.27;;;;;;;;;;5041941;28;20944;-61
2023/10/21 13:40:40;;;;;;;3.95;1.27;;;;;;;;;;5040806;28;20457;-63
2023/10/21 13:43:08;;;;;;;6.10;1.30;;;;;;;;;;5041526;28;20413;-61
2023/10/21 13:45:35;;;;;;;5.43;1.40;;;;;;;;;;5039404;28;20411;-60
2023/10/21 13:48:08;;;;;;;4.35;1.17;;;;;;;;;;5035023;28;20414;-61
2023/10/21 13:50:36;;;;;;;5.03;1.33;;;;;;;;;;5038206;28;20429;-63
2023/10/21 13:53:10;;;;;;;5.55;1.33;;;;;;;;;;5038677;28;20427;-62
2023/10/21 13:55:39;;;;;;;5.57;1.30;;;;;;;;;;5038310;28;20999;-62
2023/10/21 13:58:06;;;;;;;5.85;1.45;;;;;;;;;;5038046;28;20419;-62
2023/10/21 14:00:34;;;;;;;5.40;1.25;;;;;;;;;;5036344;28;20407;-59
2023/10/21 14:03:08;;;;;;;4.90;1.48;;;;;;;;;;5039429;28;20894;-62
2023/10/21 14:05:36;;;;;;;6.90;1.38;;;;;;;;;;5044670;28;20502;-59
2023/10/21 14:08:03;;;;;;;5.90;1.25;;;;;;;;;;5046796;28;20469;-61
2023/10/21 14:10:32;;;;;;;5.63;1.45;;;;;;;;;;5043294;28;20419;-61
2023/10/21 14:13:00;;;;;;;5.40;1.40;;;;;;;;;;5040640;28;20430;-61
2023/10/21 14:15:27;;;;;;;4.45;1.23;;;;;;;;;;5042204;28;20459;-57
2023/10/21 14:17:54;;;;;;;5.88;1.40;;;;;;;;;;5043154;28;20413;-61
2023/10/21 14:20:21;;;;;;;5.38;1.20;;;;;;;;;;5040590;28;20423;-58
2023/10/21 14:22:48;;;;;;;5.95;1.40;;;;;;;;;;5042226;28;20891;-58
2023/10/21 14:25:15;;;;;;;6.43;1.13;;;;;;;;;;5043105;28;20409;-60
2023/10/21 14:27:42;;;;;;;4.90;1.25;;;;;;;;;;5040229;28;20790;-62
2023/10/21 14:30:11;;;;;;;5.57;1.38;;;;;;;;;;5042538;28;20413;-62
2023/10/21 14:32:38;;;;;;;6.00;1.40;;;;;;;;;;5042752;28;20425;-60
2023/10/21 14:35:07;;;;;;;4.88;1.50;;;;;;;;;;5043246;28;20409;-59
2023/10/21 14:37:34;;;;;;;5.43;1.40;;;;;;;;;;5046314;28;20413;-63
2023/10/21 14:40:01;;;;;;;5.88;1.15;;;;;;;;;;5040670;28;20965;-62
2023/10/21 14:42:28;;;;;;;5.38;1.40;;;;;;;;;;5043171;28;20413;-63
2023/10/21 14:44:57;;;;;;;4.95;1.33;;;;;;;;;;5040953;28;20948;-59
2023/10/21 14:47:29;;;;;;;6.05;1.23;;;;;;;;;;5040102;28;20442;-62
2023/10/21 14:49:58;;;;;;;4.63;1.30;;;;;;;;;;5041220;28;20415;-60
2023/10/21 14:52:25;;;;;;;6.22;1.60;;;;;;;;;;5040627;28;20426;-60
2023/10/21 14:54:52;;;;;;;5.40;1.23;;;;;;;;;;5042762;28;20413;-62